createdAt,value
2022-10-30T00:00:29.115Z,2.92
2022-10-30T00:02:56.500Z,2.80
2022-10-30T00:05:24.012Z,2.75
2022-10-30T00:07:50.937Z,2.35
2022-10-30T00:10:18.498Z,2.38
2022-10-30T00:12:45.405Z,2.85
2022-10-30T00:15:12.411Z,2.60
2022-10-30T00:17:39.219Z,2.97
2022-10-30T00:20:06.952Z,3.15
2022-10-30T00:22:35.669Z,2.83
2022-10-30T00:25:03.530Z,2.90
2022-10-30T00:27:30.290Z,2.67
2022-10-30T00:29:57.071Z,2.70
2022-10-30T00:32:24.023Z,2.78
2022-10-30T00:34:50.994Z,3.17
2022-10-30T00:37:17.747Z,3.17
2022-10-30T00:39:44.587Z,2.92
2022-10-30T00:42:13.987Z,3.00
2022-10-30T00:44:51.190Z,2.88
2022-10-30T00:47:23.453Z,2.80
2022-10-30T00:49:58.538Z,2.70
2022-10-30T00:52:29.954Z,2.80
2022-10-30T00:55:03.765Z,3.15
2022-10-30T00:57:30.675Z,3.13
2022-10-30T00:59:57.715Z,2.83
2022-10-30T01:02:24.708Z,2.85
2022-10-30T01:04:54.109Z,3.05
2022-10-30T01:07:21.184Z,2.80
2022-10-30T01:09:48.391Z,2.58
2022-10-30T01:12:16.054Z,2.95
2022-10-30T01:14:51.541Z,3.10
2022-10-30T01:17:39.611Z,2.75
2022-10-30T01:20:33.528Z,2.65
2022-10-30T01:23:10.055Z,2.78
2022-10-30T01:25:52.546Z,3.03
2022-10-30T01:28:35.423Z,3.05
2022-10-30T01:31:25.230Z,2.83
2022-10-30T01:33:58.494Z,3.05
2022-10-30T01:36:51.882Z,3.17
2022-10-30T01:39:25.433Z,2.55
2022-10-30T01:41:52.435Z,3.03
2022-10-30T01:44:25.059Z,2.53
2022-10-30T01:47:10.585Z,2.83
2022-10-30T01:49:40.200Z,2.88
2022-10-30T01:52:28.874Z,3.00
2022-10-30T01:55:22.387Z,3.47
2022-10-30T01:58:15.575Z,2.95
2022-10-30T02:00:45.987Z,2.50
2022-10-30T02:03:14.447Z,2.85
2022-10-30T02:05:49.234Z,3.10
2022-10-30T02:08:19.059Z,2.95
2022-10-30T02:10:48.459Z,3.47
2022-10-30T02:13:15.930Z,2.60
2022-10-30T02:15:45.064Z,2.88
2022-10-30T02:18:12.114Z,2.83
2022-10-30T02:20:40.104Z,2.97
2022-10-30T02:23:08.766Z,2.80
2022-10-30T02:25:36.095Z,3.10
2022-10-30T02:28:03.324Z,3.10
2022-10-30T02:30:31.496Z,3.40
2022-10-30T02:33:01.438Z,2.95
2022-10-30T02:35:29.738Z,3.60
2022-10-30T02:37:56.863Z,2.55
2022-10-30T02:40:26.151Z,3.50
2022-10-30T02:42:54.765Z,3.25
2022-10-30T02:45:22.343Z,2.97
2022-10-30T02:47:49.342Z,2.88
2022-10-30T02:50:16.902Z,3.38
2022-10-30T02:52:43.706Z,3.38
2022-10-30T02:55:10.941Z,3.30
2022-10-30T02:57:38.432Z,2.67
2022-10-30T03:00:06.735Z,3.10
2022-10-30T03:02:34.189Z,3.30
2022-10-30T03:06:06.695Z,2.90
2022-10-30T03:08:35.464Z,2.88
2022-10-30T03:11:25.294Z,2.75
2022-10-30T03:13:54.538Z,3.17
2022-10-30T03:16:24.173Z,2.55
2022-10-30T03:18:52.482Z,2.78
2022-10-30T03:21:22.467Z,3.05
2022-10-30T03:23:52.820Z,2.97
2022-10-30T03:26:20.675Z,3.20
2022-10-30T03:28:54.090Z,3.13
2022-10-30T03:31:21.301Z,3.58
2022-10-30T03:33:57.350Z,3.08
2022-10-30T03:36:26.239Z,3.03
2022-10-30T03:38:53.054Z,3.00
2022-10-30T03:41:20.538Z,3.10
2022-10-30T03:43:47.315Z,2.92
2022-10-30T03:46:14.073Z,2.80
2022-10-30T03:48:40.882Z,3.25
2022-10-30T03:51:09.070Z,3.15
2022-10-30T03:53:35.968Z,3.22
2022-10-30T03:56:04.433Z,3.08
2022-10-30T03:58:46.046Z,3.20
2022-10-30T04:01:15.033Z,3.20
2022-10-30T04:03:46.629Z,2.75
2022-10-30T04:06:13.570Z,3.22
2022-10-30T04:08:40.491Z,3.15
2022-10-30T04:11:11.116Z,3.13
2022-10-30T04:13:38.661Z,2.92
2022-10-30T04:16:06.796Z,3.00
2022-10-30T04:18:34.254Z,3.30
2022-10-30T04:21:01.290Z,3.28
2022-10-30T04:23:28.475Z,2.83
2022-10-30T04:25:56.101Z,2.92
2022-10-30T04:28:23.342Z,2.80
2022-10-30T04:30:50.371Z,3.15
2022-10-30T04:33:17.956Z,3.42
2022-10-30T04:35:44.821Z,3.25
2022-10-30T04:38:16.693Z,3.50
2022-10-30T04:40:44.496Z,3.42
2022-10-30T04:43:13.929Z,3.33
2022-10-30T04:45:42.309Z,3.33
2022-10-30T04:48:15.378Z,3.20
2022-10-30T04:50:43.792Z,3.55
2022-10-30T04:53:16.084Z,3.15
2022-10-30T04:55:44.579Z,3.25
2022-10-30T04:58:13.241Z,3.10
2022-10-30T05:00:42.830Z,3.10
2022-10-30T05:03:24.529Z,2.90
2022-10-30T05:06:02.035Z,3.03
2022-10-30T05:08:29.672Z,3.38
2022-10-30T05:10:58.291Z,2.50
2022-10-30T05:13:25.290Z,3.55
2022-10-30T05:15:54.836Z,3.53
2022-10-30T05:18:22.485Z,2.65
2022-10-30T05:20:49.289Z,3.20
2022-10-30T05:23:16.810Z,3.25
2022-10-30T05:25:43.694Z,3.30
2022-10-30T05:28:12.387Z,3.63
2022-10-30T05:30:45.776Z,2.60
2022-10-30T05:33:27.473Z,2.97
2022-10-30T05:35:54.261Z,2.95
2022-10-30T05:38:21.155Z,2.92
2022-10-30T05:40:48.858Z,3.03
2022-10-30T05:43:15.983Z,2.25
2022-10-30T05:45:42.844Z,3.13
2022-10-30T05:48:09.810Z,2.78
2022-10-30T05:50:42.553Z,2.70
2022-10-30T05:53:14.838Z,2.83
2022-10-30T05:55:41.677Z,2.90
2022-10-30T05:58:20.375Z,2.78
2022-10-30T06:00:48.074Z,2.90
2022-10-30T06:03:20.249Z,3.00
2022-10-30T06:05:47.826Z,3.05
2022-10-30T06:08:16.374Z,3.40
2022-10-30T06:10:44.301Z,2.90
2022-10-30T06:13:17.292Z,3.10
2022-10-30T06:16:07.510Z,2.95
2022-10-30T06:18:57.282Z,3.35
2022-10-30T06:21:25.170Z,2.95
2022-10-30T06:24:10.941Z,2.92
2022-10-30T06:27:10.029Z,2.90
2022-10-30T06:29:36.834Z,3.25
2022-10-30T06:32:06.556Z,3.08
2022-10-30T06:34:34.055Z,2.97
2022-10-30T06:37:00.931Z,3.53
2022-10-30T06:39:27.942Z,3.05
2022-10-30T06:42:13.338Z,3.30
2022-10-30T06:44:54.321Z,2.95
2022-10-30T06:47:21.199Z,3.20
2022-10-30T06:49:48.318Z,3.45
2022-10-30T06:52:15.748Z,3.03
2022-10-30T06:54:43.659Z,3.15
2022-10-30T06:57:29.195Z,2.83
2022-10-30T07:00:19.298Z,3.10
2022-10-30T07:03:15.848Z,2.50
2022-10-30T07:05:43.001Z,2.95
2022-10-30T07:08:10.347Z,2.92
2022-10-30T07:10:37.607Z,3.30
2022-10-30T07:13:23.032Z,2.92
2022-10-30T07:15:55.558Z,3.00
2022-10-30T07:18:26.754Z,2.92
2022-10-30T07:20:59.033Z,3.25
2022-10-30T07:23:29.330Z,3.20
2022-10-30T07:26:21.490Z,3.10
2022-10-30T07:28:51.598Z,3.15
2022-10-30T07:31:41.976Z,3.35
2022-10-30T07:34:36.181Z,3.30
2022-10-30T07:37:29.892Z,3.50
2022-10-30T07:40:11.494Z,3.13
2022-10-30T07:43:00.072Z,3.33
2022-10-30T07:45:38.939Z,2.83
2022-10-30T07:48:36.584Z,3.15
2022-10-30T07:51:07.713Z,2.95
2022-10-30T07:53:34.709Z,3.45
2022-10-30T07:56:02.186Z,3.28
2022-10-30T07:58:52.414Z,3.33
2022-10-30T08:01:36.969Z,3.30
2022-10-30T08:04:27.792Z,2.67
2022-10-30T08:06:59.753Z,3.30
2022-10-30T08:09:27.793Z,2.83
2022-10-30T08:11:54.781Z,3.00
2022-10-30T08:14:21.676Z,3.30
2022-10-30T08:16:48.523Z,3.28
2022-10-30T08:19:15.467Z,3.45
2022-10-30T08:21:42.536Z,3.53
2022-10-30T08:24:15.311Z,3.13
2022-10-30T08:26:45.439Z,3.25
2022-10-30T08:29:12.926Z,3.17
2022-10-30T08:31:40.548Z,3.47
2022-10-30T08:34:34.569Z,3.42
2022-10-30T08:37:07.940Z,3.65
2022-10-30T08:39:35.401Z,3.42
2022-10-30T08:45:10.866Z,2.85
2022-10-30T08:50:35.974Z,2.97
2022-10-30T08:53:05.284Z,3.92
2022-10-30T08:55:34.620Z,3.40
2022-10-30T08:58:04.225Z,3.72
2022-10-30T09:00:31.629Z,3.47
2022-10-30T09:03:24.630Z,4.40
2022-10-30T09:06:10.773Z,4.38
2022-10-30T09:08:55.967Z,4.30
2022-10-30T09:11:40.539Z,4.22
2022-10-30T09:14:08.063Z,3.90
2022-10-30T09:16:34.853Z,3.95
2022-10-30T09:19:02.520Z,4.30
2022-10-30T09:21:29.662Z,4.00
2022-10-30T09:23:56.772Z,4.55
2022-10-30T09:26:55.966Z,3.90
2022-10-30T09:29:24.923Z,3.45
2022-10-30T09:32:09.988Z,3.28
2022-10-30T09:35:01.078Z,3.60
2022-10-30T09:37:37.368Z,3.58
2022-10-30T09:42:49.755Z,3.28
2022-10-30T09:45:33.986Z,3.28
2022-10-30T09:48:19.842Z,3.95
2022-10-30T09:51:22.625Z,3.47
2022-10-30T09:54:17.774Z,3.78
2022-10-30T09:57:19.318Z,3.47
2022-10-30T10:00:07.474Z,3.42
2022-10-30T10:03:05.999Z,3.90
2022-10-30T10:05:48.356Z,3.58
2022-10-30T10:08:59.693Z,3.45
2022-10-30T10:11:53.461Z,3.95
2022-10-30T10:14:26.176Z,3.65
2022-10-30T10:16:54.545Z,3.58
2022-10-30T10:19:39.265Z,3.88
2022-10-30T10:24:47.664Z,3.08
2022-10-30T10:27:20.308Z,3.17
2022-10-30T10:29:59.306Z,3.60
2022-10-30T10:32:29.040Z,3.40
2022-10-30T10:35:14.991Z,3.53
2022-10-30T10:38:08.922Z,3.35
2022-10-30T10:40:50.516Z,3.63
2022-10-30T10:43:29.003Z,3.60
2022-10-30T10:46:17.310Z,3.60
2022-10-30T10:49:02.224Z,2.92
2022-10-30T10:51:41.017Z,3.47
2022-10-30T10:54:42.367Z,3.78
2022-10-30T10:57:32.078Z,4.05
2022-10-30T11:00:13.432Z,4.40
2022-10-30T11:03:18.086Z,3.85
2022-10-30T11:05:58.826Z,4.00
2022-10-30T11:08:31.439Z,4.20
2022-10-30T11:11:03.798Z,4.03
2022-10-30T11:13:45.486Z,4.50
2022-10-30T11:16:21.444Z,4.22
2022-10-30T11:18:53.525Z,4.13
2022-10-30T11:21:23.172Z,4.32
2022-10-30T11:23:50.709Z,3.88
2022-10-30T11:26:17.443Z,3.28
2022-10-30T11:28:59.954Z,3.20
2022-10-30T11:31:40.459Z,3.42
2022-10-30T11:34:19.315Z,3.42
2022-10-30T11:36:48.029Z,3.20
2022-10-30T11:39:20.487Z,3.20
2022-10-30T11:41:56.258Z,3.17
2022-10-30T11:44:41.303Z,2.88
2022-10-30T11:47:10.841Z,2.70
2022-10-30T11:49:52.923Z,3.38
2022-10-30T11:52:22.475Z,3.08
2022-10-30T11:55:11.241Z,3.33
2022-10-30T11:57:42.875Z,3.17
2022-10-30T12:00:20.012Z,2.60
2022-10-30T12:02:51.463Z,3.03
2022-10-30T12:05:39.680Z,2.72
2022-10-30T12:08:09.531Z,3.00
2022-10-30T12:10:57.210Z,3.08
2022-10-30T12:13:25.022Z,2.72
2022-10-30T12:16:13.641Z,2.63
2022-10-30T12:18:41.103Z,2.80
2022-10-30T12:21:09.004Z,2.72
2022-10-30T12:23:35.900Z,2.42
2022-10-30T12:26:10.897Z,3.25
2022-10-30T12:28:39.559Z,2.55
2022-10-30T12:31:48.737Z,2.80
2022-10-30T12:34:18.294Z,2.50
2022-10-30T12:36:55.499Z,2.75
2022-10-30T12:39:30.167Z,2.35
2022-10-30T12:42:24.952Z,2.70
2022-10-30T12:45:26.300Z,2.45
2022-10-30T12:48:03.758Z,2.58
2022-10-30T12:50:57.348Z,2.35
2022-10-30T12:53:42.676Z,2.30
2022-10-30T12:56:14.949Z,2.28
2022-10-30T12:58:47.225Z,2.40
2022-10-30T13:01:35.267Z,1.88
2022-10-30T13:04:22.949Z,2.38
2022-10-30T13:06:59.567Z,2.10
2022-10-30T13:09:57.853Z,2.30
2022-10-30T13:12:52.287Z,2.13
2022-10-30T13:15:30.674Z,2.20
2022-10-30T13:18:13.923Z,2.08
2022-10-30T13:20:42.615Z,2.00
2022-10-30T13:23:15.424Z,2.22
2022-10-30T13:25:57.199Z,2.10
2022-10-30T13:28:32.755Z,1.88
2022-10-30T13:31:32.184Z,2.20
2022-10-30T13:34:06.283Z,1.75
2022-10-30T13:36:50.848Z,1.95
2022-10-30T13:42:10.523Z,1.80
2022-10-30T13:45:06.184Z,2.00
2022-10-30T13:47:55.130Z,2.03
2022-10-30T13:50:30.836Z,2.00
2022-10-30T13:53:02.664Z,1.80
2022-10-30T13:55:33.011Z,2.03
2022-10-30T13:58:16.211Z,2.08
2022-10-30T14:00:54.684Z,1.92
2022-10-30T14:03:27.543Z,2.10
2022-10-30T14:06:03.222Z,1.60
2022-10-30T14:09:00.715Z,2.05
2022-10-30T14:11:27.499Z,1.60
2022-10-30T14:14:12.899Z,1.90
2022-10-30T14:16:43.549Z,1.55
2022-10-30T14:19:18.124Z,1.95
2022-10-30T14:21:54.838Z,2.00
2022-10-30T14:24:28.374Z,1.85
2022-10-30T14:27:09.455Z,1.90
2022-10-30T14:29:45.496Z,1.67
2022-10-30T14:32:15.329Z,1.80
2022-10-30T14:34:51.195Z,2.17
2022-10-30T14:37:23.794Z,1.63
2022-10-30T14:39:51.731Z,2.00
2022-10-30T14:42:50.982Z,1.80
2022-10-30T14:45:25.986Z,1.98
2022-10-30T14:47:57.346Z,1.60
2022-10-30T14:50:27.445Z,1.75
2022-10-30T14:53:30.261Z,1.60
2022-10-30T14:56:07.069Z,1.67
2022-10-30T14:58:38.271Z,1.75
2022-10-30T15:01:27.764Z,1.85
2022-10-30T15:04:14.563Z,1.90
2022-10-30T15:06:50.540Z,2.20
2022-10-30T15:09:29.145Z,2.33
2022-10-30T15:15:04.962Z,2.30
2022-10-30T15:17:59.470Z,2.53
2022-10-30T15:20:31.792Z,2.30
2022-10-30T15:23:03.856Z,1.80
2022-10-30T15:25:45.611Z,1.83
2022-10-30T15:28:19.022Z,2.03
2022-10-30T15:31:03.884Z,2.60
2022-10-30T15:35:59.750Z,2.90
2022-10-30T15:38:26.690Z,3.30
2022-10-30T15:41:02.095Z,3.05
2022-10-30T15:43:35.201Z,2.70
2022-10-30T15:46:08.069Z,2.30
2022-10-30T15:48:35.845Z,2.30
2022-10-30T15:51:14.800Z,2.17
2022-10-30T15:53:48.117Z,1.70
2022-10-30T15:56:41.124Z,2.15
2022-10-30T15:59:49.104Z,1.92
2022-10-30T16:02:24.600Z,1.80
2022-10-30T16:04:51.477Z,2.05
2022-10-30T16:07:29.861Z,2.70
2022-10-30T16:10:02.764Z,3.38
2022-10-30T16:12:34.471Z,3.22
2022-10-30T16:15:08.675Z,2.95
2022-10-30T16:17:35.579Z,2.47
2022-10-30T16:20:04.332Z,2.20
2022-10-30T16:22:39.525Z,2.10
2022-10-30T16:25:09.022Z,2.15
2022-10-30T16:27:44.005Z,2.88
2022-10-30T16:30:14.321Z,2.92
2022-10-30T16:32:43.197Z,3.25
2022-10-30T16:35:11.613Z,2.38
2022-10-30T16:37:40.763Z,7.05
2022-10-30T16:40:15.440Z,5.40
2022-10-30T16:42:49.543Z,8.85
2022-10-30T16:45:19.518Z,7.53
2022-10-30T16:47:51.689Z,6.75
2022-10-30T16:50:20.169Z,5.57
2022-10-30T16:52:47.247Z,4.53
2022-10-30T16:55:22.343Z,3.80
2022-10-30T16:57:55.426Z,13.80
2022-10-30T17:00:27.198Z,8.80
2022-10-30T17:02:56.266Z,5.38
2022-10-30T17:05:26.146Z,4.03
2022-10-30T17:07:58.496Z,3.08
2022-10-30T17:10:33.299Z,2.90
2022-10-30T17:13:32.655Z,3.00
2022-10-30T17:16:23.391Z,2.50
2022-10-30T17:19:18.448Z,2.53
2022-10-30T17:21:45.475Z,2.53
2022-10-30T17:24:25.753Z,2.38
2022-10-30T17:26:58.039Z,1.85
2022-10-30T17:29:44.890Z,1.90
2022-10-30T17:32:18.815Z,2.20
2022-10-30T17:34:46.254Z,2.25
2022-10-30T17:37:13.099Z,2.42
2022-10-30T17:39:39.964Z,2.13
2022-10-30T17:42:07.673Z,2.00
2022-10-30T17:44:35.880Z,1.90
2022-10-30T17:47:16.706Z,2.00
2022-10-30T17:49:44.022Z,2.60
2022-10-30T17:52:20.601Z,1.95
2022-10-30T17:54:47.387Z,2.33
2022-10-30T17:57:15.576Z,2.30
2022-10-30T17:59:43.349Z,2.08
2022-10-30T18:02:14.317Z,2.33
2022-10-30T18:04:44.470Z,2.25
2022-10-30T18:07:12.470Z,2.05
2022-10-30T18:09:39.578Z,2.13
2022-10-30T18:12:07.743Z,2.30
2022-10-30T18:14:34.532Z,2.47
2022-10-30T18:17:01.427Z,2.20
2022-10-30T18:19:28.325Z,2.20
2022-10-30T18:21:55.170Z,2.20
2022-10-30T18:24:22.504Z,2.10
2022-10-30T18:26:49.698Z,2.45
2022-10-30T18:29:16.577Z,2.60
2022-10-30T18:31:43.393Z,2.47
2022-10-30T18:34:20.498Z,2.22
2022-10-30T18:36:48.283Z,2.17
2022-10-30T18:39:15.145Z,2.60
2022-10-30T18:41:44.651Z,2.60
2022-10-30T18:44:16.267Z,2.28
2022-10-30T18:46:43.693Z,2.20
2022-10-30T18:49:10.623Z,2.42
2022-10-30T18:51:38.219Z,2.40
2022-10-30T18:54:13.446Z,2.70
2022-10-30T18:56:40.196Z,2.85
2022-10-30T18:59:06.969Z,2.65
2022-10-30T19:01:33.898Z,2.70
2022-10-30T19:04:02.268Z,2.80
2022-10-30T19:06:29.564Z,2.45
2022-10-30T19:08:56.400Z,2.85
2022-10-30T19:11:25.206Z,2.55
2022-10-30T19:13:53.925Z,2.97
2022-10-30T19:16:21.830Z,2.75
2022-10-30T19:18:48.990Z,3.05
2022-10-30T19:21:21.842Z,2.30
2022-10-30T19:23:48.893Z,2.45
2022-10-30T19:26:17.354Z,2.53
2022-10-30T19:28:45.108Z,2.22
2022-10-30T19:31:17.133Z,2.47
2022-10-30T19:33:44.789Z,2.58
2022-10-30T19:36:33.956Z,2.67
2022-10-30T19:39:07.507Z,2.80
2022-10-30T19:41:36.440Z,2.33
2022-10-30T19:44:03.324Z,2.53
2022-10-30T19:46:30.128Z,2.85
2022-10-30T19:48:58.668Z,2.45
2022-10-30T19:51:27.461Z,2.42
2022-10-30T19:53:54.408Z,2.63
2022-10-30T19:56:22.038Z,2.42
2022-10-30T19:58:49.427Z,2.83
2022-10-30T20:01:16.604Z,2.80
2022-10-30T20:03:43.733Z,3.08
2022-10-30T20:06:14.389Z,3.30
2022-10-30T20:08:41.554Z,2.88
2022-10-30T20:11:08.580Z,2.88
2022-10-30T20:13:37.088Z,2.38
2022-10-30T20:16:05.257Z,3.05
2022-10-30T20:18:34.544Z,2.78
2022-10-30T20:21:04.228Z,2.78
2022-10-30T20:23:31.282Z,2.33
2022-10-30T20:26:02.073Z,2.40
2022-10-30T20:28:36.493Z,2.72
2022-10-30T20:33:30.476Z,2.15
2022-10-30T20:35:57.617Z,2.33
2022-10-30T20:38:29.463Z,2.20
2022-10-30T20:40:57.711Z,2.58
2022-10-30T20:43:37.315Z,2.35
2022-10-30T20:46:06.359Z,2.83
2022-10-30T20:48:33.510Z,2.47
2022-10-30T20:51:01.846Z,2.80
2022-10-30T20:53:29.551Z,2.83
2022-10-30T20:55:57.161Z,2.38
2022-10-30T20:58:24.181Z,2.80
2022-10-30T21:00:55.282Z,2.22
2022-10-30T21:03:22.357Z,2.35
2022-10-30T21:05:55.721Z,2.60
2022-10-30T21:08:22.667Z,2.63
2022-10-30T21:10:49.503Z,2.20
2022-10-30T21:13:16.283Z,2.92
2022-10-30T21:15:44.523Z,2.72
2022-10-30T21:18:13.142Z,2.90
2022-10-30T21:20:41.043Z,2.40
2022-10-30T21:23:08.322Z,2.78
2022-10-30T21:25:35.857Z,2.78
2022-10-30T21:28:03.277Z,2.72
2022-10-30T21:30:30.753Z,2.50
2022-10-30T21:32:59.343Z,2.80
2022-10-30T21:35:27.330Z,2.75
2022-10-30T21:37:54.174Z,2.88
2022-10-30T21:40:21.023Z,3.40
2022-10-30T21:42:48.528Z,2.67
2022-10-30T21:45:15.368Z,2.53
2022-10-30T21:47:42.121Z,3.25
2022-10-30T21:50:12.207Z,2.63
2022-10-30T21:52:40.151Z,2.78
2022-10-30T21:55:07.920Z,2.92
2022-10-30T21:57:35.037Z,2.92
2022-10-30T22:00:05.658Z,3.00
2022-10-30T22:02:34.397Z,3.17
2022-10-30T22:05:01.221Z,2.25
2022-10-30T22:07:28.096Z,2.55
2022-10-30T22:09:55.146Z,2.63
2022-10-30T22:12:22.013Z,2.50
2022-10-30T22:14:48.938Z,2.83
2022-10-30T22:17:15.821Z,2.45
2022-10-30T22:19:42.631Z,2.92
2022-10-30T22:22:11.041Z,2.50
2022-10-30T22:24:37.983Z,2.25
2022-10-30T22:27:04.765Z,2.70
2022-10-30T22:29:31.872Z,2.45
2022-10-30T22:31:58.720Z,2.28
2022-10-30T22:34:25.502Z,2.60
2022-10-30T22:36:52.278Z,2.75
2022-10-30T22:39:19.180Z,2.47
2022-10-30T22:41:45.992Z,2.58
2022-10-30T22:44:14.631Z,2.70
2022-10-30T22:46:41.492Z,2.67
2022-10-30T22:49:08.352Z,2.30
2022-10-30T22:51:37.348Z,2.83
2022-10-30T22:54:06.605Z,2.33
2022-10-30T22:56:35.995Z,2.75
2022-10-30T22:59:10.717Z,2.45
2022-10-30T23:01:38.808Z,2.53
2022-10-30T23:04:07.391Z,2.55
2022-10-30T23:06:35.492Z,2.60
2022-10-30T23:09:08.624Z,2.70
2022-10-30T23:11:35.837Z,2.60
2022-10-30T23:14:02.684Z,2.70
2022-10-30T23:16:29.483Z,2.40
2022-10-30T23:18:58.133Z,3.00
2022-10-30T23:21:26.877Z,3.05
2022-10-30T23:23:53.951Z,2.28
2022-10-30T23:26:29.778Z,2.80
2022-10-30T23:28:58.156Z,2.65
2022-10-30T23:31:26.673Z,2.95
2022-10-30T23:33:55.998Z,2.53
2022-10-30T23:36:23.502Z,2.53
2022-10-30T23:38:55.057Z,2.63
2022-10-30T23:41:24.091Z,2.60
2022-10-30T23:43:59.090Z,2.53
2022-10-30T23:46:26.825Z,2.38
2022-10-30T23:48:54.220Z,2.47
2022-10-30T23:51:21.439Z,2.50
2022-10-30T23:53:48.909Z,2.15
2022-10-30T23:56:16.281Z,2.30
2022-10-30T23:58:45.015Z,2.28
